Time;durP1;ratioP1;P1;durP2;ratioP2;P2;SDS_P1;SDS_P2;PMS_P1;PMS_P2;Temp;Humidity;BMP_temperature;BMP_pressure;BME280_temperature;BME280_humidity;BME280_pressure;Samples;Min_cycle;Max_cycle;Signal;HPM_P1;HPM_P2
2023/12/02 00:02:01;;;;;;;42.63;19.98;;;-1.10;99.90;;;;;;4959720;28;20126;-64
2023/12/02 00:04:27;;;;;;;42.20;20.10;;;-1.10;99.90;;;;;;4934539;28;20553;-64
2023/12/02 00:06:53;;;;;;;44.10;21.35;;;-1.10;99.90;;;;;;4961668;28;20046;-64
2023/12/02 00:09:19;;;;;;;46.20;21.27;;;-1.10;99.90;;;;;;4963044;28;20050;-64
2023/12/02 00:11:49;;;;;;;42.15;19.05;;;-1.10;99.90;;;;;;4961609;28;20089;-64
2023/12/02 00:14:15;;;;;;;41.88;21.00;;;-1.10;99.90;;;;;;4958987;28;20046;-64
2023/12/02 00:16:41;;;;;;;41.17;20.35;;;-1.10;99.90;;;;;;4946924;28;20062;-64
2023/12/02 00:19:07;;;;;;;45.15;21.20;;;-1.10;99.90;;;;;;4966970;28;20050;-66
2023/12/02 00:21:33;;;;;;;45.40;20.90;;;-1.10;99.90;;;;;;4965720;28;20039;-63
2023/12/02 00:23:58;;;;;;;43.10;21.33;;;-1.10;99.90;;;;;;4958601;28;20043;-64
2023/12/02 00:26:24;;;;;;;44.25;21.08;;;-1.10;99.90;;;;;;4958969;28;20043;-64
2023/12/02 00:28:50;;;;;;;46.30;20.38;;;-1.20;99.90;;;;;;4972486;28;20693;-63
2023/12/02 00:31:16;;;;;;;45.92;21.45;;;-0.60;99.90;;;;;;4934702;28;20419;-64
2023/12/02 00:33:42;;;;;;;43.42;20.17;;;-1.00;99.90;;;;;;4969410;28;20055;-64
2023/12/02 00:36:08;;;;;;;42.72;21.20;;;-1.10;99.90;;;;;;4964873;28;20562;-64
2023/12/02 00:38:34;;;;;;;39.65;20.67;;;-1.00;99.90;;;;;;4962897;28;20046;-64
2023/12/02 00:41:00;;;;;;;39.88;19.73;;;-1.10;99.90;;;;;;4966161;28;20573;-65
2023/12/02 00:43:26;;;;;;;40.17;20.30;;;-1.10;99.90;;;;;;4966234;28;20407;-64
2023/12/02 00:45:51;;;;;;;39.05;19.95;;;-1.00;99.90;;;;;;4967894;28;20038;-64
2023/12/02 00:48:17;;;;;;;42.03;21.08;;;-1.00;99.90;;;;;;4967437;28;20051;-64
2023/12/02 00:50:43;;;;;;;38.55;20.73;;;-1.00;99.90;;;;;;4963306;28;20506;-64
2023/12/02 00:53:09;;;;;;;42.80;21.00;;;-1.10;99.90;;;;;;4956807;28;20104;-64
2023/12/02 00:55:35;;;;;;;43.65;21.80;;;-1.00;99.90;;;;;;4948552;28;20127;-64
2023/12/02 00:58:00;;;;;;;41.97;20.67;;;-1.00;99.90;;;;;;4957028;28;20496;-64
2023/12/02 01:00:26;;;;;;;38.50;19.40;;;-1.00;99.90;;;;;;4918090;29;20055;-64
2023/12/02 01:02:52;;;;;;;37.53;18.95;;;-1.00;99.90;;;;;;4957402;28;20070;-63
2023/12/02 01:05:18;;;;;;;41.72;20.23;;;-1.00;99.90;;;;;;4967893;28;20046;-64
2023/12/02 01:07:43;;;;;;;44.70;20.88;;;-1.00;99.90;;;;;;4967656;28;20496;-64
2023/12/02 01:10:12;;;;;;;44.42;22.00;;;-0.80;99.90;;;;;;4965821;28;20090;-64
2023/12/02 01:12:41;;;;;;;44.10;21.55;;;-1.00;99.90;;;;;;4949871;28;20086;-64
2023/12/02 01:15:07;;;;;;;39.70;19.80;;;-0.90;99.90;;;;;;4966840;28;20097;-64
2023/12/02 01:17:33;;;;;;;43.10;20.50;;;-1.00;99.90;;;;;;4949071;28;20741;-63
2023/12/02 01:19:59;;;;;;;38.25;20.40;;;-1.00;99.90;;;;;;4933511;28;20137;-67
2023/12/02 01:22:25;;;;;;;38.35;19.75;;;-1.00;99.90;;;;;;4959820;28;20043;-68
2023/12/02 01:24:54;;;;;;;40.33;21.40;;;-1.00;99.90;;;;;;4944604;28;20393;-68
2023/12/02 01:27:20;;;;;;;40.40;19.92;;;-1.00;99.90;;;;;;4942991;28;20476;-68
2023/12/02 01:29:45;;;;;;;40.00;21.02;;;-0.90;99.90;;;;;;4962195;28;20054;-67
2023/12/02 01:32:11;;;;;;;39.60;20.85;;;-1.00;99.90;;;;;;4961363;28;20401;-63
2023/12/02 01:34:37;;;;;;;40.72;20.20;;;-1.00;99.90;;;;;;4941659;28;20050;-69
2023/12/02 01:37:02;;;;;;;42.45;19.77;;;-1.00;99.90;;;;;;4937147;28;20043;-63
2023/12/02 01:39:28;;;;;;;40.13;20.45;;;-1.00;99.90;;;;;;4938947;28;20047;-63
2023/12/02 01:41:54;;;;;;;36.65;19.65;;;-0.90;99.90;;;;;;4925423;28;20194;-63
2023/12/02 01:44:21;;;;;;;38.63;19.15;;;-1.00;99.90;;;;;;4957329;28;20477;-63
2023/12/02 01:46:46;;;;;;;38.75;19.92;;;-1.50;99.90;;;;;;4920256;28;20074;-63
2023/12/02 01:49:13;;;;;;;35.65;19.42;;;-1.00;99.90;;;;;;4936859;28;20368;-64
2023/12/02 01:51:39;;;;;;;38.83;20.40;;;-1.00;99.90;;;;;;4933421;28;20038;-64
2023/12/02 01:54:05;;;;;;;39.17;20.67;;;-1.00;99.90;;;;;;4950829;28;20043;-63
2023/12/02 01:56:30;;;;;;;42.45;20.58;;;-1.00;99.90;;;;;;4948046;28;20040;-64
2023/12/02 01:58:57;;;;;;;38.05;18.98;;;-0.20;99.90;;;;;;4953962;28;20038;-64
2023/12/02 02:01:22;;;;;;;40.85;20.80;;;-1.00;99.90;;;;;;4949318;28;20058;-64
2023/12/02 02:03:50;;;;;;;37.35;19.10;;;-1.00;99.90;;;;;;4936277;28;20043;-64
2023/12/02 02:06:15;;;;;;;39.47;20.15;;;-1.00;99.90;;;;;;4961611;28;20510;-63
2023/12/02 02:08:41;;;;;;;37.53;19.42;;;-0.20;99.90;;;;;;4942582;28;20067;-64
2023/12/02 02:11:07;;;;;;;37.63;19.38;;;-0.90;99.90;;;;;;4970318;28;20657;-63
2023/12/02 02:13:33;;;;;;;41.55;19.67;;;-0.30;99.90;;;;;;4966436;28;20100;-63
2023/12/02 02:15:59;;;;;;;41.28;21.05;;;-1.00;99.90;;;;;;4944268;28;20504;-64
2023/12/02 02:18:25;;;;;;;38.72;19.55;;;-1.00;99.90;;;;;;4965880;28;20053;-64
2023/12/02 02:20:52;;;;;;;39.42;20.10;;;-1.00;99.90;;;;;;4966309;28;20109;-64
2023/12/02 02:23:19;;;;;;;40.45;20.48;;;-1.00;99.90;;;;;;4961810;28;20102;-64
2023/12/02 02:25:45;;;;;;;37.75;20.08;;;-1.00;99.90;;;;;;4938696;28;20047;-64
2023/12/02 02:28:11;;;;;;;42.72;20.52;;;-0.70;99.90;;;;;;4981181;28;20181;-65
2023/12/02 02:30:36;;;;;;;45.60;20.70;;;-1.00;99.90;;;;;;4978741;28;20256;-64
2023/12/02 02:33:02;;;;;;;39.53;20.17;;;-1.00;99.90;;;;;;4965297;28;20439;-64
2023/12/02 02:35:28;;;;;;;43.15;20.83;;;-1.00;99.90;;;;;;4965878;28;20058;-64
2023/12/02 02:37:54;;;;;;;39.50;19.65;;;-1.00;99.90;;;;;;4942181;28;20108;-64
2023/12/02 02:40:19;;;;;;;43.42;19.80;;;-1.00;99.90;;;;;;4966684;28;20074;-64
2023/12/02 02:42:45;;;;;;;40.28;19.88;;;-1.00;99.90;;;;;;4965012;28;20046;-64
2023/12/02 02:45:11;;;;;;;42.40;19.70;;;-1.00;99.90;;;;;;4966240;28;20113;-64
2023/12/02 02:47:37;;;;;;;39.13;19.00;;;-1.00;99.90;;;;;;4929919;28;20644;-64
2023/12/02 02:50:03;;;;;;;40.15;20.20;;;-1.10;99.90;;;;;;4930392;28;20089;-64
2023/12/02 02:52:29;;;;;;;41.20;19.88;;;-1.00;99.90;;;;;;4946390;28;20113;-64
2023/12/02 02:54:54;;;;;;;39.33;19.73;;;-0.30;99.90;;;;;;4933528;28;20495;-64
2023/12/02 02:57:21;;;;;;;42.60;21.05;;;-1.10;99.90;;;;;;4950257;28;20053;-65
2023/12/02 02:59:46;;;;;;;44.55;21.30;;;-0.10;99.90;;;;;;4960717;28;20389;-64
2023/12/02 03:02:12;;;;;;;40.88;20.50;;;-1.10;99.90;;;;;;4965225;28;20057;-64
2023/12/02 03:04:38;;;;;;;43.50;22.00;;;-0.80;99.90;;;;;;4964853;28;20134;-64
2023/12/02 03:07:04;;;;;;;42.10;21.77;;;-1.10;99.90;;;;;;4965720;28;20046;-64
2023/12/02 03:09:30;;;;;;;44.10;20.67;;;-1.10;99.90;;;;;;4965810;28;20042;-64
2023/12/02 03:11:56;;;;;;;42.13;21.58;;;-0.30;99.90;;;;;;4964927;28;20053;-68
2023/12/02 03:14:22;;;;;;;43.03;21.38;;;-1.10;99.90;;;;;;4946260;28;20047;-68
2023/12/02 03:16:48;;;;;;;45.22;21.08;;;-1.10;99.90;;;;;;4966893;28;20503;-68
2023/12/02 03:19:14;;;;;;;45.47;23.02;;;-1.10;99.90;;;;;;4953945;28;20527;-68
2023/12/02 03:21:40;;;;;;;42.28;21.33;;;-0.60;99.90;;;;;;4968662;28;20046;-68
2023/12/02 03:24:06;;;;;;;43.17;20.77;;;-1.10;99.90;;;;;;4968960;28;20614;-68
2023/12/02 03:26:34;;;;;;;41.60;21.58;;;-1.10;99.90;;;;;;4950733;28;20050;-68
2023/12/02 03:29:00;;;;;;;38.17;19.75;;;-0.50;99.90;;;;;;4972319;28;20047;-68
2023/12/02 03:31:26;;;;;;;40.00;21.15;;;-1.20;99.90;;;;;;4939722;28;20502;-68
2023/12/02 03:33:51;;;;;;;38.17;19.35;;;-1.00;99.90;;;;;;4968727;28;20053;-68
2023/12/02 03:36:17;;;;;;;40.63;19.63;;;-1.20;99.90;;;;;;4935880;28;20043;-68
2023/12/02 03:38:43;;;;;;;40.55;20.10;;;-1.20;99.90;;;;;;4952489;28;20510;-68
2023/12/02 03:41:08;;;;;;;36.40;18.60;;;-1.20;99.90;;;;;;4949487;28;20045;-68
2023/12/02 03:43:35;;;;;;;39.72;19.25;;;-1.10;99.90;;;;;;4966481;28;20130;-68
2023/12/02 03:46:02;;;;;;;39.38;19.08;;;-1.00;99.90;;;;;;4936077;28;20129;-68
2023/12/02 03:48:27;;;;;;;37.40;20.25;;;-1.20;99.90;;;;;;4979086;28;20495;-68
2023/12/02 03:50:54;;;;;;;37.85;19.23;;;-1.00;99.90;;;;;;4970090;28;20086;-69
2023/12/02 03:53:19;;;;;;;38.95;20.60;;;-0.30;99.90;;;;;;4969136;28;20062;-68
2023/12/02 03:55:45;;;;;;;35.58;18.55;;;-1.20;99.90;;;;;;4969687;28;20607;-68
2023/12/02 03:58:11;;;;;;;37.28;19.27;;;-0.20;99.90;;;;;;4968289;28;20042;-68
2023/12/02 04:00:37;;;;;;;39.85;19.55;;;-1.20;99.90;;;;;;4935789;29;20757;-69
2023/12/02 04:03:02;;;;;;;36.53;19.45;;;-1.20;99.90;;;;;;4962640;28;20141;-68
2023/12/02 04:05:28;;;;;;;38.00;19.88;;;-1.20;99.90;;;;;;4967738;28;20408;-68
2023/12/02 04:07:54;;;;;;;36.15;19.13;;;-1.20;99.90;;;;;;4968159;28;20043;-64
2023/12/02 04:10:22;;;;;;;41.58;19.90;;;-1.10;99.90;;;;;;4964216;28;20047;-64
2023/12/02 04:12:48;;;;;;;38.00;19.58;;;-1.20;99.90;;;;;;4964895;28;20047;-64
2023/12/02 04:15:14;;;;;;;37.17;18.70;;;-1.20;99.90;;;;;;4950522;29;20070;-64
2023/12/02 04:17:39;;;;;;;45.03;19.90;;;-1.20;99.90;;;;;;4968066;28;20137;-64
2023/12/02 04:20:09;;;;;;;40.92;20.85;;;-1.20;99.90;;;;;;4967672;28;20055;-64
2023/12/02 04:22:35;;;;;;;34.63;18.17;;;-1.20;99.90;;;;;;4968283;28;20081;-64
2023/12/02 04:25:01;;;;;;;38.42;19.58;;;-1.20;99.90;;;;;;4967466;28;20043;-69
2023/12/02 04:27:27;;;;;;;40.75;19.98;;;-1.20;99.90;;;;;;4951036;28;20054;-64
2023/12/02 04:29:53;;;;;;;42.63;20.30;;;-1.10;99.90;;;;;;4969457;28;20043;-64
2023/12/02 04:32:18;;;;;;;37.25;19.15;;;-0.40;99.90;;;;;;4963980;28;20721;-64
2023/12/02 04:34:44;;;;;;;41.83;19.73;;;-1.20;99.90;;;;;;4967829;28;20404;-64
2023/12/02 04:37:10;;;;;;;44.35;21.00;;;-1.20;99.90;;;;;;4966005;28;20057;-64
2023/12/02 04:39:35;;;;;;;39.63;19.60;;;-1.20;99.90;;;;;;4967499;28;20050;-70
2023/12/02 04:42:01;;;;;;;39.78;19.75;;;-1.20;99.90;;;;;;4966074;28;20074;-65
2023/12/02 04:44:27;;;;;;;34.95;18.73;;;-1.20;99.90;;;;;;4916314;29;20664;-64
2023/12/02 04:46:52;;;;;;;39.15;19.75;;;-1.20;99.90;;;;;;4948294;28;20043;-68
2023/12/02 04:49:18;;;;;;;42.30;20.60;;;-1.20;99.90;;;;;;4920069;28;20050;-68
2023/12/02 04:51:44;;;;;;;42.30;21.67;;;-0.30;99.90;;;;;;4968338;28;20138;-68
2023/12/02 04:54:10;;;;;;;38.10;20.17;;;-1.20;99.90;;;;;;4968936;28;20443;-64
2023/12/02 04:56:36;;;;;;;37.05;20.25;;;-1.20;99.90;;;;;;4934721;28;20412;-64
2023/12/02 04:59:02;;;;;;;38.60;19.45;;;-1.10;99.90;;;;;;4966245;28;20054;-65
2023/12/02 05:01:28;;;;;;;39.08;18.90;;;-1.20;99.90;;;;;;4955211;28;20050;-65
2023/12/02 05:03:54;;;;;;;40.30;19.95;;;-1.30;99.90;;;;;;4970608;28;20066;-65
2023/12/02 05:06:19;;;;;;;39.55;19.50;;;-1.20;99.90;;;;;;4956445;28;20042;-64
2023/12/02 05:08:45;;;;;;;40.20;19.58;;;-1.30;99.90;;;;;;4969203;28;20042;-64
2023/12/02 05:11:19;;;;;;;36.33;19.15;;;-1.20;99.90;;;;;;4961875;28;20050;-64
2023/12/02 05:13:48;;;;;;;39.83;19.67;;;-1.20;99.90;;;;;;4931328;29;20709;-64
2023/12/02 05:16:14;;;;;;;36.22;19.10;;;-1.10;99.90;;;;;;4945251;28;20278;-64
2023/12/02 05:18:41;;;;;;;36.58;19.30;;;-1.20;99.90;;;;;;4949350;28;20050;-63
2023/12/02 05:21:07;;;;;;;36.67;18.90;;;-1.20;99.90;;;;;;4965952;28;20066;-64
2023/12/02 05:23:33;;;;;;;40.15;20.67;;;-1.20;99.90;;;;;;4956258;28;20050;-63
2023/12/02 05:25:59;;;;;;;35.80;18.88;;;-1.20;99.90;;;;;;4961744;28;20047;-63
2023/12/02 05:28:24;;;;;;;41.53;21.15;;;-1.20;99.90;;;;;;4968316;28;20081;-64
2023/12/02 05:30:50;;;;;;;41.28;20.10;;;-0.90;99.90;;;;;;4967938;28;20496;-63
2023/12/02 05:33:17;;;;;;;38.75;19.80;;;-1.20;99.90;;;;;;4968368;28;20047;-63
2023/12/02 05:35:43;;;;;;;39.63;19.90;;;-1.20;99.90;;;;;;4950873;28;20051;-63
2023/12/02 05:38:09;;;;;;;39.63;20.13;;;-1.30;99.90;;;;;;4949640;28;20062;-64
2023/12/02 05:40:34;;;;;;;38.50;19.58;;;-1.30;99.90;;;;;;4960099;28;20057;-64
2023/12/02 05:43:00;;;;;;;34.50;18.35;;;-1.20;99.90;;;;;;4968235;28;20039;-63
2023/12/02 05:45:26;;;;;;;36.60;19.25;;;-1.20;99.90;;;;;;4965938;28;20172;-64
2023/12/02 05:47:51;;;;;;;39.72;19.20;;;-1.30;99.90;;;;;;4945421;29;20035;-64
2023/12/02 05:50:17;;;;;;;37.55;18.48;;;-1.30;99.90;;;;;;4958787;28;20050;-64
2023/12/02 05:52:43;;;;;;;37.53;18.23;;;-1.30;99.90;;;;;;4946603;28;21804;-64
2023/12/02 05:55:09;;;;;;;37.15;19.55;;;-1.30;99.90;;;;;;4949025;28;20510;-63
2023/12/02 05:57:35;;;;;;;35.50;18.58;;;-1.30;99.90;;;;;;4948253;28;20057;-63
2023/12/02 06:00:00;;;;;;;40.97;20.40;;;-1.30;99.90;;;;;;4961340;28;20073;-64
2023/12/02 06:02:26;;;;;;;39.15;19.85;;;-1.30;99.90;;;;;;4964616;28;20688;-64
2023/12/02 06:04:52;;;;;;;36.25;19.60;;;-1.30;99.90;;;;;;4963908;28;20047;-64
2023/12/02 06:07:17;;;;;;;40.00;20.60;;;-1.20;99.90;;;;;;4932114;28;20046;-63
2023/12/02 06:09:43;;;;;;;38.08;19.60;;;-1.30;99.90;;;;;;4948866;28;20054;-63
2023/12/02 06:12:10;;;;;;;37.90;20.15;;;-0.80;99.90;;;;;;4966754;28;20049;-64
2023/12/02 06:14:36;;;;;;;38.17;19.40;;;-1.00;99.90;;;;;;4965739;28;20050;-63
2023/12/02 06:17:03;;;;;;;37.33;19.13;;;-1.30;99.90;;;;;;4932194;28;20061;-64
2023/12/02 06:19:28;;;;;;;40.58;19.33;;;-1.30;99.90;;;;;;4967941;28;20089;-64
2023/12/02 06:21:54;;;;;;;40.25;18.13;;;-1.30;99.90;;;;;;4965578;28;20423;-63
2023/12/02 06:24:21;;;;;;;39.88;19.95;;;-0.90;99.90;;;;;;4964813;28;20043;-63
2023/12/02 06:26:46;;;;;;;37.22;19.17;;;-0.50;99.90;;;;;;4966051;28;20089;-64
2023/12/02 06:29:12;;;;;;;36.10;18.30;;;-1.30;99.90;;;;;;4948581;28;20066;-64
2023/12/02 06:31:38;;;;;;;42.25;19.45;;;-1.30;99.90;;;;;;4953902;28;20061;-64
2023/12/02 06:34:06;;;;;;;33.92;18.50;;;-1.30;99.90;;;;;;4948743;28;20114;-64
2023/12/02 06:36:32;;;;;;;35.30;18.55;;;-0.90;99.90;;;;;;4973842;28;20051;-63
2023/12/02 06:38:58;;;;;;;37.83;19.38;;;-1.30;99.90;;;;;;4952983;28;20046;-64
2023/12/02 06:41:24;;;;;;;37.55;19.08;;;-1.30;99.90;;;;;;4980386;28;20470;-63
2023/12/02 06:43:52;;;;;;;35.28;18.05;;;-1.30;99.90;;;;;;4944589;28;20126;-64
2023/12/02 06:46:22;;;;;;;36.00;18.38;;;-1.30;99.90;;;;;;4966822;28;20043;-64
2023/12/02 06:48:49;;;;;;;34.88;18.15;;;-1.30;99.90;;;;;;4956877;28;20093;-63
2023/12/02 06:51:15;;;;;;;35.78;17.85;;;-1.30;99.90;;;;;;4936121;28;20050;-63
2023/12/02 06:53:40;;;;;;;35.63;18.73;;;-1.30;99.90;;;;;;4944342;29;20082;-64
2023/12/02 06:56:21;;;;;;;35.30;18.83;;;-1.30;99.90;;;;;;4968229;28;20046;-64
2023/12/02 06:58:48;;;;;;;34.38;18.52;;;-1.30;99.90;;;;;;4960404;28;20051;-64
2023/12/02 07:01:31;;;;;;;38.38;20.05;;;-1.30;99.90;;;;;;4933763;28;20039;-64
2023/12/02 07:03:57;;;;;;;36.40;18.83;;;-1.30;99.90;;;;;;4970013;28;20100;-63
2023/12/02 07:06:24;;;;;;;38.95;19.17;;;-0.50;99.90;;;;;;4951989;28;20484;-64
2023/12/02 07:08:54;;;;;;;35.92;18.35;;;-1.20;99.90;;;;;;4968566;28;20047;-63
2023/12/02 07:11:23;;;;;;;40.83;19.45;;;-1.30;99.90;;;;;;4968867;28;20090;-63
2023/12/02 07:13:48;;;;;;;35.45;16.95;;;-1.30;99.90;;;;;;4971687;28;20515;-63
2023/12/02 07:16:14;;;;;;;34.42;18.48;;;-0.80;99.90;;;;;;4954154;28;20042;-64
2023/12/02 07:18:40;;;;;;;38.47;18.35;;;-1.40;99.90;;;;;;4968792;28;20057;-63
2023/12/02 07:21:07;;;;;;;37.67;19.58;;;-1.30;99.90;;;;;;4969918;28;20126;-63
2023/12/02 07:23:33;;;;;;;37.10;18.65;;;-1.30;99.90;;;;;;4967178;28;20046;-64
2023/12/02 07:25:59;;;;;;;38.55;19.45;;;-1.30;99.90;;;;;;4969610;28;20597;-63
2023/12/02 07:28:26;;;;;;;35.55;18.02;;;-0.80;99.90;;;;;;4967451;28;20137;-64
2023/12/02 07:30:52;;;;;;;39.53;19.95;;;-1.40;99.90;;;;;;4964555;28;20043;-64
2023/12/02 07:33:22;;;;;;;38.72;20.33;;;-1.30;99.90;;;;;;4945958;28;20078;-63
2023/12/02 07:35:47;;;;;;;36.33;18.60;;;-1.30;99.90;;;;;;4960843;28;20100;-64
2023/12/02 07:38:13;;;;;;;38.88;19.75;;;-0.80;99.90;;;;;;4959309;28;20671;-64
2023/12/02 07:40:39;;;;;;;37.03;18.77;;;-1.30;99.90;;;;;;4935111;28;20047;-63
2023/12/02 07:43:05;;;;;;;39.67;20.10;;;-1.40;99.90;;;;;;4941495;28;20039;-64
2023/12/02 07:45:31;;;;;;;42.92;19.88;;;-1.30;99.90;;;;;;4949292;28;20056;-63
2023/12/02 07:47:57;;;;;;;42.47;20.42;;;-1.30;99.90;;;;;;4958389;28;20497;-63
2023/12/02 07:50:24;;;;;;;40.90;20.17;;;-1.30;99.90;;;;;;4922130;28;20043;-64
2023/12/02 07:52:49;;;;;;;42.05;19.83;;;-1.30;99.90;;;;;;4958206;28;20078;-63
2023/12/02 07:55:15;;;;;;;41.55;19.90;;;-1.30;99.90;;;;;;4943834;29;20136;-64
2023/12/02 07:57:41;;;;;;;37.70;19.63;;;-1.30;99.90;;;;;;4960826;28;20110;-64
2023/12/02 08:00:10;;;;;;;40.03;20.42;;;-1.40;99.90;;;;;;4955620;28;20113;-63
2023/12/02 08:02:35;;;;;;;39.58;19.42;;;-1.30;99.90;;;;;;4936613;28;20141;-63
2023/12/02 08:05:01;;;;;;;39.95;20.75;;;-1.30;99.90;;;;;;4966772;28;20122;-63
2023/12/02 08:07:27;;;;;;;40.78;20.35;;;-1.10;99.90;;;;;;4951526;28;20125;-63
2023/12/02 08:09:53;;;;;;;42.20;21.30;;;-1.30;99.90;;;;;;4953649;28;20679;-63
2023/12/02 08:12:18;;;;;;;40.92;21.05;;;-1.30;99.90;;;;;;4950051;28;20038;-64
2023/12/02 08:14:44;;;;;;;41.63;20.52;;;-1.00;99.90;;;;;;4962158;28;20282;-63
2023/12/02 08:17:10;;;;;;;42.53;20.25;;;-1.30;99.90;;;;;;4948005;28;20856;-64
2023/12/02 08:19:36;;;;;;;41.38;20.83;;;-1.30;99.90;;;;;;4962284;28;20046;-64
2023/12/02 08:22:02;;;;;;;40.88;20.55;;;-1.00;99.90;;;;;;4965176;28;20043;-64
2023/12/02 08:24:32;;;;;;;39.42;20.27;;;-1.30;99.90;;;;;;4949408;28;20050;-64
2023/12/02 08:26:58;;;;;;;41.05;21.05;;;-1.20;99.90;;;;;;4965060;28;20193;-64
2023/12/02 08:29:24;;;;;;;37.60;20.35;;;-0.90;99.90;;;;;;4952074;28;20045;-64
2023/12/02 08:31:50;;;;;;;40.05;20.55;;;-2.10;99.90;;;;;;4939354;28;20765;-64
2023/12/02 08:34:16;;;;;;;40.38;19.40;;;-1.20;99.90;;;;;;4954333;28;20050;-64
2023/12/02 08:36:42;;;;;;;39.80;19.40;;;-1.20;99.90;;;;;;4956280;28;20434;-63
2023/12/02 08:39:09;;;;;;;39.00;19.27;;;-1.20;99.90;;;;;;4949317;28;20506;-65
2023/12/02 08:41:36;;;;;;;38.65;20.25;;;-1.20;99.90;;;;;;4955091;28;20126;-64
2023/12/02 08:44:02;;;;;;;41.08;19.92;;;-1.20;99.90;;;;;;4939189;28;20085;-64
2023/12/02 08:46:28;;;;;;;41.47;20.08;;;-1.10;99.90;;;;;;4942483;28;20054;-64
2023/12/02 08:48:53;;;;;;;40.63;20.05;;;-1.10;99.90;;;;;;4956425;28;20504;-64
2023/12/02 08:51:19;;;;;;;45.47;21.65;;;-1.20;99.90;;;;;;4960866;28;20081;-64
2023/12/02 08:53:45;;;;;;;36.47;19.20;;;-1.10;99.90;;;;;;4935190;28;20055;-64
2023/12/02 08:56:11;;;;;;;39.75;19.88;;;-1.10;99.90;;;;;;4958527;28;20045;-64
2023/12/02 08:58:37;;;;;;;39.17;19.73;;;-1.10;99.90;;;;;;4941596;28;20050;-64
2023/12/02 09:01:04;;;;;;;42.13;21.50;;;-1.10;99.90;;;;;;4936649;28;20125;-63
2023/12/02 09:03:30;;;;;;;41.28;21.42;;;-1.00;99.90;;;;;;4941021;28;20055;-64
2023/12/02 09:05:56;;;;;;;44.13;21.48;;;0.00;99.90;;;;;;4960478;28;20048;-64
2023/12/02 09:08:22;;;;;;;45.15;22.35;;;-1.00;99.90;;;;;;4960359;28;20121;-64
2023/12/02 09:10:48;;;;;;;41.63;20.63;;;-1.00;99.90;;;;;;4958226;28;20039;-64
2023/12/02 09:13:32;;;;;;;43.22;21.45;;;-1.00;99.90;;;;;;4949781;28;20563;-64
2023/12/02 09:16:00;;;;;;;42.63;20.58;;;0.10;99.90;;;;;;4955579;28;20042;-64
2023/12/02 09:18:36;;;;;;;40.53;20.05;;;-1.00;99.90;;;;;;4956541;28;20047;-64
2023/12/02 09:21:20;;;;;;;41.72;20.27;;;-0.90;99.90;;;;;;4958361;28;20049;-64
2023/12/02 09:23:47;;;;;;;41.33;20.27;;;-0.90;99.90;;;;;;4959464;28;20047;-64
2023/12/02 09:26:27;;;;;;;43.53;20.52;;;-0.80;99.90;;;;;;4935569;28;20074;-64
2023/12/02 09:28:56;;;;;;;40.63;20.73;;;-0.80;99.90;;;;;;4930570;28;20054;-65
2023/12/02 09:31:22;;;;;;;42.97;19.90;;;-0.90;99.90;;;;;;4918311;28;20077;-64
2023/12/02 09:34:03;;;;;;;38.35;20.20;;;-0.80;99.90;;;;;;4929879;28;20043;-64
2023/12/02 09:36:41;;;;;;;40.15;19.75;;;-0.80;99.90;;;;;;4944666;28;20046;-65
2023/12/02 09:39:16;;;;;;;40.00;19.20;;;-0.80;99.90;;;;;;4945457;28;20117;-70
2023/12/02 09:41:49;;;;;;;41.17;20.10;;;-0.80;99.90;;;;;;4946279;28;20469;-67
2023/12/02 09:44:23;;;;;;;36.22;17.67;;;-0.80;99.90;;;;;;4918361;28;20553;-66
2023/12/02 09:47:07;;;;;;;36.05;18.75;;;-0.70;99.90;;;;;;4948604;28;20055;-66
2023/12/02 09:49:49;;;;;;;35.00;17.90;;;-0.70;99.90;;;;;;4933650;28;20435;-67
2023/12/02 09:52:24;;;;;;;38.10;19.38;;;-0.70;99.90;;;;;;4943270;28;20137;-67
2023/12/02 09:55:11;;;;;;;38.47;18.10;;;-0.70;99.90;;;;;;4955597;28;20227;-68
2023/12/02 09:57:49;;;;;;;35.08;18.38;;;-0.60;99.90;;;;;;4945303;28;20050;-66
2023/12/02 10:00:44;;;;;;;39.95;19.00;;;-0.60;99.90;;;;;;4962446;28;20047;-63
2023/12/02 10:03:34;;;;;;;40.13;18.88;;;-0.50;99.90;;;;;;4946611;28;20411;-62
2023/12/02 10:06:30;;;;;;;34.92;18.50;;;-0.50;99.90;;;;;;4955401;28;20155;-62
2023/12/02 10:09:14;;;;;;;39.70;18.83;;;-0.40;99.90;;;;;;4918079;28;20071;-62
2023/12/02 10:11:50;;;;;;;39.53;18.65;;;-0.40;99.90;;;;;;4926038;28;20133;-61
2023/12/02 10:14:21;;;;;;;33.95;18.52;;;-0.40;99.90;;;;;;4959693;28;20047;-67
2023/12/02 10:16:50;;;;;;;27.73;13.95;;;-0.40;99.90;;;;;;4962844;28;20082;-67
2023/12/02 10:19:34;;;;;;;38.55;19.38;;;-0.30;99.90;;;;;;4944826;28;20064;-67
2023/12/02 10:22:03;;;;;;;37.47;18.55;;;-0.30;99.90;;;;;;4930547;28;20495;-67
2023/12/02 10:25:07;;;;;;;35.05;18.02;;;-0.30;99.90;;;;;;4932663;28;20115;-65
2023/12/02 10:27:37;;;;;;;34.17;17.58;;;-0.20;99.90;;;;;;4967281;28;20086;-65
2023/12/02 10:30:12;;;;;;;34.03;17.40;;;-0.20;99.90;;;;;;4964382;28;20169;-66
2023/12/02 10:32:45;;;;;;;34.30;18.23;;;-0.10;99.90;;;;;;4949162;28;20090;-65
2023/12/02 10:35:27;;;;;;;33.97;17.13;;;-0.10;99.90;;;;;;4953214;28;20093;-61
2023/12/02 10:38:05;;;;;;;32.53;16.85;;;0.00;99.90;;;;;;4965012;28;20053;-64
2023/12/02 10:40:32;;;;;;;35.80;17.73;;;0.00;99.90;;;;;;4966068;28;20154;-63
2023/12/02 10:43:02;;;;;;;34.80;17.25;;;0.30;99.90;;;;;;4949080;28;20554;-63
2023/12/02 10:45:30;;;;;;;32.88;16.92;;;0.10;99.90;;;;;;4968983;28;20130;-64
2023/12/02 10:47:58;;;;;;;33.70;17.52;;;0.10;99.90;;;;;;4964153;28;20054;-63
2023/12/02 10:50:25;;;;;;;35.42;17.73;;;0.10;99.90;;;;;;4965812;28;20047;-63
2023/12/02 10:53:12;;;;;;;33.35;16.40;;;0.20;99.90;;;;;;4958841;28;20555;-63
2023/12/02 10:55:43;;;;;;;31.42;15.82;;;0.20;99.90;;;;;;4966678;28;20052;-63
2023/12/02 10:58:10;;;;;;;34.35;17.55;;;0.20;99.90;;;;;;4948674;28;20452;-63
2023/12/02 11:00:38;;;;;;;33.45;16.98;;;0.20;99.90;;;;;;4968007;28;20042;-64
2023/12/02 11:03:25;;;;;;;31.00;16.45;;;0.30;99.90;;;;;;4966669;28;20057;-63
2023/12/02 11:06:07;;;;;;;31.85;16.48;;;0.30;99.90;;;;;;4962363;28;20763;-63
2023/12/02 11:08:54;;;;;;;28.30;15.50;;;0.40;99.90;;;;;;4965433;28;20043;-63
2023/12/02 11:11:52;;;;;;;31.20;15.57;;;0.40;99.90;;;;;;4949262;28;20038;-63
2023/12/02 11:14:20;;;;;;;31.23;15.75;;;0.40;99.90;;;;;;4947537;28;20051;-65
2023/12/02 11:16:58;;;;;;;28.00;14.35;;;1.00;99.90;;;;;;4949635;28;20109;-63
2023/12/02 11:19:36;;;;;;;29.67;15.98;;;0.50;99.90;;;;;;4948191;28;20054;-63
2023/12/02 11:22:16;;;;;;;32.50;16.40;;;0.50;99.90;;;;;;4965221;28;20043;-63
2023/12/02 11:24:54;;;;;;;29.85;15.85;;;0.50;99.90;;;;;;4948420;28;20093;-63
2023/12/02 11:27:31;;;;;;;30.30;15.52;;;0.50;99.90;;;;;;4961170;28;20039;-63
2023/12/02 11:30:06;;;;;;;28.77;15.75;;;0.50;99.90;;;;;;4949479;28;20161;-63
2023/12/02 11:32:46;;;;;;;29.15;16.15;;;0.60;99.90;;;;;;4943631;28;20046;-64
2023/12/02 11:35:20;;;;;;;28.50;15.23;;;0.50;99.90;;;;;;4969431;28;20058;-63
2023/12/02 11:38:01;;;;;;;29.15;15.93;;;0.60;99.90;;;;;;4968489;28;20491;-62
2023/12/02 11:40:42;;;;;;;27.75;14.45;;;0.60;99.90;;;;;;4964525;28;20137;-63
2023/12/02 11:43:10;;;;;;;28.10;13.67;;;0.70;99.90;;;;;;4967017;28;20503;-63
2023/12/02 11:45:43;;;;;;;27.42;14.15;;;0.70;99.90;;;;;;4951525;28;20318;-63
2023/12/02 11:48:16;;;;;;;26.55;14.57;;;0.80;99.90;;;;;;4966322;28;20120;-63
2023/12/02 11:50:54;;;;;;;26.23;14.80;;;0.70;99.90;;;;;;4957939;28;20420;-64
2023/12/02 11:53:44;;;;;;;29.02;13.00;;;0.80;99.90;;;;;;4968658;28;20039;-63
2023/12/02 11:56:12;;;;;;;27.40;14.20;;;0.80;99.90;;;;;;4964668;28;20496;-63
2023/12/02 11:59:03;;;;;;;25.45;13.80;;;0.80;99.90;;;;;;4963292;28;20045;-63
2023/12/02 12:01:59;;;;;;;24.85;13.32;;;0.80;99.90;;;;;;4944198;28;20050;-63
2023/12/02 12:04:56;;;;;;;22.95;13.02;;;0.90;99.90;;;;;;4963392;28;20126;-63
2023/12/02 12:07:37;;;;;;;23.20;12.60;;;0.90;99.90;;;;;;4898081;28;20076;-63
2023/12/02 12:10:27;;;;;;;22.77;12.30;;;0.90;99.90;;;;;;4946781;28;20117;-63
2023/12/02 12:12:56;;;;;;;24.48;10.82;;;0.90;99.90;;;;;;4940911;28;20600;-63
2023/12/02 12:15:22;;;;;;;26.77;12.18;;;1.00;99.90;;;;;;4963048;28;20561;-64
2023/12/02 12:17:48;;;;;;;21.13;11.30;;;1.00;99.90;;;;;;4948762;28;20039;-63
2023/12/02 12:20:25;;;;;;;20.83;11.27;;;1.00;99.90;;;;;;4956350;28;20050;-63
2023/12/02 12:22:52;;;;;;;18.95;10.30;;;1.00;99.90;;;;;;4962204;28;20058;-63
2023/12/02 12:25:17;;;;;;;20.35;10.23;;;1.10;99.90;;;;;;4957836;28;20046;-63
2023/12/02 12:27:43;;;;;;;19.25;9.20;;;1.10;99.90;;;;;;4943482;28;20042;-63
2023/12/02 12:30:10;;;;;;;17.67;9.48;;;1.10;99.90;;;;;;4953216;28;20051;-63
2023/12/02 12:32:37;;;;;;;20.17;9.98;;;1.10;99.90;;;;;;4938255;28;20046;-63
2023/12/02 12:35:11;;;;;;;20.58;8.98;;;1.20;99.90;;;;;;4956581;28;20042;-64
2023/12/02 12:37:39;;;;;;;20.60;8.77;;;1.30;99.90;;;;;;4954573;28;20146;-64